sensor_id;sensor_type;location;lat;lon;timestamp;P1;durP1;ratioP1;P2;durP2;ratioP2
2602;SDS011;1311;47.966;7.958;2023-11-21T00:01:06;1.43;;;0.70;;
2602;SDS011;1311;47.966;7.958;2023-11-21T00:03:33;1.37;;;0.70;;
2602;SDS011;1311;47.966;7.958;2023-11-21T00:06:00;2.60;;;1.03;;
2602;SDS011;1311;47.966;7.958;2023-11-21T00:08:27;2.17;;;0.80;;
2602;SDS011;1311;47.966;7.958;2023-11-21T00:10:54;2.90;;;0.80;;
2602;SDS011;1311;47.966;7.958;2023-11-21T00:13:21;1.80;;;0.70;;
2602;SDS011;1311;47.966;7.958;2023-11-21T00:15:49;2.33;;;0.70;;
2602;SDS011;1311;47.966;7.958;2023-11-21T00:18:16;2.10;;;0.77;;
2602;SDS011;1311;47.966;7.958;2023-11-21T00:20:43;2.13;;;0.70;;
2602;SDS011;1311;47.966;7.958;2023-11-21T00:23:10;1.13;;;0.50;;
2602;SDS011;1311;47.966;7.958;2023-11-21T00:25:36;2.03;;;0.60;;
2602;SDS011;1311;47.966;7.958;2023-11-21T00:28:03;2.53;;;0.63;;
2602;SDS011;1311;47.966;7.958;2023-11-21T00:30:30;2.40;;;0.70;;
2602;SDS011;1311;47.966;7.958;2023-11-21T00:32:59;2.63;;;0.60;;
2602;SDS011;1311;47.966;7.958;2023-11-21T00:35:26;1.13;;;0.60;;
2602;SDS011;1311;47.966;7.958;2023-11-21T00:37:53;0.80;;;0.60;;
2602;SDS011;1311;47.966;7.958;2023-11-21T00:40:19;2.47;;;1.10;;
2602;SDS011;1311;47.966;7.958;2023-11-21T00:42:47;1.30;;;0.80;;
2602;SDS011;1311;47.966;7.958;2023-11-21T00:45:14;0.60;;;0.60;;
2602;SDS011;1311;47.966;7.958;2023-11-21T00:47:41;1.33;;;0.57;;
2602;SDS011;1311;47.966;7.958;2023-11-21T00:50:10;1.67;;;0.70;;
2602;SDS011;1311;47.966;7.958;2023-11-21T00:52:36;2.23;;;0.50;;
2602;SDS011;1311;47.966;7.958;2023-11-21T00:55:04;0.70;;;0.60;;
2602;SDS011;1311;47.966;7.958;2023-11-21T00:57:32;0.43;;;0.40;;
2602;SDS011;1311;47.966;7.958;2023-11-21T00:59:59;1.97;;;0.50;;
2602;SDS011;1311;47.966;7.958;2023-11-21T01:02:26;2.00;;;0.50;;
2602;SDS011;1311;47.966;7.958;2023-11-21T01:04:54;1.50;;;0.90;;
2602;SDS011;1311;47.966;7.958;2023-11-21T01:07:22;0.67;;;0.50;;
2602;SDS011;1311;47.966;7.958;2023-11-21T01:09:49;0.87;;;0.50;;
2602;SDS011;1311;47.966;7.958;2023-11-21T01:12:16;0.60;;;0.47;;
2602;SDS011;1311;47.966;7.958;2023-11-21T01:14:43;0.70;;;0.60;;
2602;SDS011;1311;47.966;7.958;2023-11-21T01:17:11;1.13;;;0.40;;
2602;SDS011;1311;47.966;7.958;2023-11-21T01:19:38;0.97;;;0.37;;
2602;SDS011;1311;47.966;7.958;2023-11-21T01:22:05;0.70;;;0.40;;
2602;SDS011;1311;47.966;7.958;2023-11-21T01:24:33;1.03;;;0.40;;
2602;SDS011;1311;47.966;7.958;2023-11-21T01:26:59;0.53;;;0.50;;
2602;SDS011;1311;47.966;7.958;2023-11-21T01:29:26;1.13;;;0.30;;
2602;SDS011;1311;47.966;7.958;2023-11-21T01:31:53;1.70;;;0.43;;
2602;SDS011;1311;47.966;7.958;2023-11-21T01:34:19;0.50;;;0.40;;
2602;SDS011;1311;47.966;7.958;2023-11-21T01:36:46;0.50;;;0.50;;
2602;SDS011;1311;47.966;7.958;2023-11-21T01:39:13;0.30;;;0.30;;
2602;SDS011;1311;47.966;7.958;2023-11-21T01:41:42;1.00;;;0.50;;
2602;SDS011;1311;47.966;7.958;2023-11-21T01:44:10;1.07;;;0.40;;
2602;SDS011;1311;47.966;7.958;2023-11-21T01:46:38;1.17;;;0.40;;
2602;SDS011;1311;47.966;7.958;2023-11-21T01:49:05;2.00;;;0.30;;
2602;SDS011;1311;47.966;7.958;2023-11-21T01:51:32;1.47;;;0.50;;
2602;SDS011;1311;47.966;7.958;2023-11-21T01:53:59;0.70;;;0.60;;
2602;SDS011;1311;47.966;7.958;2023-11-21T01:56:26;0.50;;;0.40;;
2602;SDS011;1311;47.966;7.958;2023-11-21T01:58:57;0.80;;;0.40;;
2602;SDS011;1311;47.966;7.958;2023-11-21T02:01:24;1.43;;;0.50;;
2602;SDS011;1311;47.966;7.958;2023-11-21T02:03:51;0.80;;;0.30;;
2602;SDS011;1311;47.966;7.958;2023-11-21T02:06:18;1.37;;;0.60;;
2602;SDS011;1311;47.966;7.958;2023-11-21T02:08:45;0.67;;;0.47;;
2602;SDS011;1311;47.966;7.958;2023-11-21T02:11:12;3.07;;;0.50;;
2602;SDS011;1311;47.966;7.958;2023-11-21T02:13:38;0.80;;;0.43;;
2602;SDS011;1311;47.966;7.958;2023-11-21T02:16:09;0.97;;;0.50;;
2602;SDS011;1311;47.966;7.958;2023-11-21T02:18:37;1.13;;;0.50;;
2602;SDS011;1311;47.966;7.958;2023-11-21T02:21:04;1.70;;;0.60;;
2602;SDS011;1311;47.966;7.958;2023-11-21T02:23:33;3.80;;;0.83;;
2602;SDS011;1311;47.966;7.958;2023-11-21T02:25:59;0.50;;;0.40;;
2602;SDS011;1311;47.966;7.958;2023-11-21T02:28:29;1.00;;;0.60;;
2602;SDS011;1311;47.966;7.958;2023-11-21T02:30:56;0.40;;;0.33;;
2602;SDS011;1311;47.966;7.958;2023-11-21T02:33:24;1.40;;;0.60;;
2602;SDS011;1311;47.966;7.958;2023-11-21T02:35:50;0.87;;;0.60;;
2602;SDS011;1311;47.966;7.958;2023-11-21T02:38:19;1.67;;;0.77;;
2602;SDS011;1311;47.966;7.958;2023-11-21T02:40:47;2.40;;;0.40;;
2602;SDS011;1311;47.966;7.958;2023-11-21T02:43:15;0.40;;;0.40;;
2602;SDS011;1311;47.966;7.958;2023-11-21T02:45:41;4.60;;;0.90;;
2602;SDS011;1311;47.966;7.958;2023-11-21T02:48:08;0.50;;;0.40;;
2602;SDS011;1311;47.966;7.958;2023-11-21T02:50:35;1.17;;;0.50;;
2602;SDS011;1311;47.966;7.958;2023-11-21T02:53:02;0.73;;;0.40;;
2602;SDS011;1311;47.966;7.958;2023-11-21T02:55:30;1.33;;;0.53;;
2602;SDS011;1311;47.966;7.958;2023-11-21T02:58:01;0.80;;;0.70;;
2602;SDS011;1311;47.966;7.958;2023-11-21T03:00:28;1.90;;;0.67;;
2602;SDS011;1311;47.966;7.958;2023-11-21T03:02:55;1.27;;;0.80;;
2602;SDS011;1311;47.966;7.958;2023-11-21T03:05:22;0.40;;;0.40;;
2602;SDS011;1311;47.966;7.958;2023-11-21T03:07:49;0.53;;;0.40;;
2602;SDS011;1311;47.966;7.958;2023-11-21T03:10:16;0.50;;;0.50;;
2602;SDS011;1311;47.966;7.958;2023-11-21T03:12:42;0.50;;;0.40;;
2602;SDS011;1311;47.966;7.958;2023-11-21T03:15:11;1.47;;;0.50;;
2602;SDS011;1311;47.966;7.958;2023-11-21T03:17:38;1.87;;;0.60;;
2602;SDS011;1311;47.966;7.958;2023-11-21T03:20:06;1.07;;;0.60;;
2602;SDS011;1311;47.966;7.958;2023-11-21T03:22:35;0.50;;;0.40;;
2602;SDS011;1311;47.966;7.958;2023-11-21T03:25:02;0.50;;;0.40;;
2602;SDS011;1311;47.966;7.958;2023-11-21T03:27:30;0.60;;;0.40;;
2602;SDS011;1311;47.966;7.958;2023-11-21T03:29:57;2.87;;;0.70;;
2602;SDS011;1311;47.966;7.958;2023-11-21T03:32:26;0.93;;;0.50;;
2602;SDS011;1311;47.966;7.958;2023-11-21T03:34:53;0.30;;;0.30;;
2602;SDS011;1311;47.966;7.958;2023-11-21T03:37:21;1.63;;;0.40;;
2602;SDS011;1311;47.966;7.958;2023-11-21T03:42:13;1.00;;;0.63;;
2602;SDS011;1311;47.966;7.958;2023-11-21T03:44:40;3.13;;;0.87;;
2602;SDS011;1311;47.966;7.958;2023-11-21T03:47:07;2.40;;;0.80;;
2602;SDS011;1311;47.966;7.958;2023-11-21T03:49:35;1.03;;;0.77;;
2602;SDS011;1311;47.966;7.958;2023-11-21T03:52:01;1.00;;;0.60;;
2602;SDS011;1311;47.966;7.958;2023-11-21T03:54:28;4.43;;;1.53;;
2602;SDS011;1311;47.966;7.958;2023-11-21T03:56:55;2.60;;;0.70;;
2602;SDS011;1311;47.966;7.958;2023-11-21T03:59:22;1.10;;;0.60;;
2602;SDS011;1311;47.966;7.958;2023-11-21T04:01:49;2.03;;;0.60;;
2602;SDS011;1311;47.966;7.958;2023-11-21T04:04:16;3.40;;;0.70;;
2602;SDS011;1311;47.966;7.958;2023-11-21T04:06:44;1.13;;;0.60;;
2602;SDS011;1311;47.966;7.958;2023-11-21T04:09:10;4.10;;;1.40;;
2602;SDS011;1311;47.966;7.958;2023-11-21T04:11:37;2.30;;;0.90;;
2602;SDS011;1311;47.966;7.958;2023-11-21T04:14:04;2.90;;;1.47;;
2602;SDS011;1311;47.966;7.958;2023-11-21T04:16:31;3.90;;;1.10;;
2602;SDS011;1311;47.966;7.958;2023-11-21T04:18:58;1.50;;;0.80;;
2602;SDS011;1311;47.966;7.958;2023-11-21T04:21:25;0.80;;;0.60;;
2602;SDS011;1311;47.966;7.958;2023-11-21T04:23:53;1.23;;;0.73;;
2602;SDS011;1311;47.966;7.958;2023-11-21T04:26:20;3.40;;;0.80;;
2602;SDS011;1311;47.966;7.958;2023-11-21T04:28:47;1.23;;;0.50;;
2602;SDS011;1311;47.966;7.958;2023-11-21T04:31:13;1.80;;;1.00;;
2602;SDS011;1311;47.966;7.958;2023-11-21T04:33:40;1.50;;;0.90;;
2602;SDS011;1311;47.966;7.958;2023-11-21T04:36:07;1.13;;;0.90;;
2602;SDS011;1311;47.966;7.958;2023-11-21T04:38:34;2.53;;;0.50;;
2602;SDS011;1311;47.966;7.958;2023-11-21T04:41:02;1.73;;;1.10;;
2602;SDS011;1311;47.966;7.958;2023-11-21T04:43:29;3.77;;;0.90;;
2602;SDS011;1311;47.966;7.958;2023-11-21T04:45:56;1.17;;;0.63;;
2602;SDS011;1311;47.966;7.958;2023-11-21T04:48:23;1.60;;;0.67;;
2602;SDS011;1311;47.966;7.958;2023-11-21T04:50:50;2.00;;;0.70;;
2602;SDS011;1311;47.966;7.958;2023-11-21T04:53:17;1.87;;;0.67;;
2602;SDS011;1311;47.966;7.958;2023-11-21T04:55:43;1.97;;;0.90;;
2602;SDS011;1311;47.966;7.958;2023-11-21T04:58:12;2.50;;;1.03;;
2602;SDS011;1311;47.966;7.958;2023-11-21T05:00:38;1.00;;;0.90;;
2602;SDS011;1311;47.966;7.958;2023-11-21T05:03:06;1.13;;;0.97;;
2602;SDS011;1311;47.966;7.958;2023-11-21T05:05:33;1.53;;;0.90;;
2602;SDS011;1311;47.966;7.958;2023-11-21T05:07:59;1.67;;;0.87;;
2602;SDS011;1311;47.966;7.958;2023-11-21T05:10:27;1.30;;;0.63;;
2602;SDS011;1311;47.966;7.958;2023-11-21T05:12:54;36.33;;;15.60;;
2602;SDS011;1311;47.966;7.958;2023-11-21T05:15:22;26.53;;;9.93;;
2602;SDS011;1311;47.966;7.958;2023-11-21T05:17:49;10.73;;;5.70;;
2602;SDS011;1311;47.966;7.958;2023-11-21T05:20:17;5.10;;;2.13;;
2602;SDS011;1311;47.966;7.958;2023-11-21T05:22:46;3.27;;;1.53;;
2602;SDS011;1311;47.966;7.958;2023-11-21T05:25:13;4.17;;;2.17;;
2602;SDS011;1311;47.966;7.958;2023-11-21T05:27:40;3.43;;;2.17;;
2602;SDS011;1311;47.966;7.958;2023-11-21T05:30:07;4.10;;;1.43;;
2602;SDS011;1311;47.966;7.958;2023-11-21T05:32:38;1.17;;;0.90;;
2602;SDS011;1311;47.966;7.958;2023-11-21T05:35:05;4.70;;;1.67;;
2602;SDS011;1311;47.966;7.958;2023-11-21T05:37:34;3.07;;;1.47;;
2602;SDS011;1311;47.966;7.958;2023-11-21T05:40:04;1.60;;;1.43;;
2602;SDS011;1311;47.966;7.958;2023-11-21T05:42:31;5.17;;;4.67;;
2602;SDS011;1311;47.966;7.958;2023-11-21T05:44:58;3.50;;;3.20;;
2602;SDS011;1311;47.966;7.958;2023-11-21T05:47:34;5.90;;;4.50;;
2602;SDS011;1311;47.966;7.958;2023-11-21T05:50:04;3.97;;;3.70;;
2602;SDS011;1311;47.966;7.958;2023-11-21T05:52:32;3.23;;;2.40;;
2602;SDS011;1311;47.966;7.958;2023-11-21T05:54:58;0.90;;;0.90;;
2602;SDS011;1311;47.966;7.958;2023-11-21T05:57:25;1.33;;;0.80;;
2602;SDS011;1311;47.966;7.958;2023-11-21T05:59:52;3.87;;;1.23;;
2602;SDS011;1311;47.966;7.958;2023-11-21T06:02:19;1.60;;;0.80;;
2602;SDS011;1311;47.966;7.958;2023-11-21T06:04:46;1.03;;;0.80;;
2602;SDS011;1311;47.966;7.958;2023-11-21T06:07:14;2.90;;;1.20;;
2602;SDS011;1311;47.966;7.958;2023-11-21T06:09:40;1.20;;;0.80;;
2602;SDS011;1311;47.966;7.958;2023-11-21T06:12:07;0.90;;;0.80;;
2602;SDS011;1311;47.966;7.958;2023-11-21T06:14:34;0.87;;;0.80;;
2602;SDS011;1311;47.966;7.958;2023-11-21T06:17:01;0.70;;;0.70;;
2602;SDS011;1311;47.966;7.958;2023-11-21T06:19:28;0.80;;;0.80;;
2602;SDS011;1311;47.966;7.958;2023-11-21T06:21:55;1.30;;;1.20;;
2602;SDS011;1311;47.966;7.958;2023-11-21T06:24:23;3.10;;;0.90;;
2602;SDS011;1311;47.966;7.958;2023-11-21T06:26:50;1.97;;;1.40;;
2602;SDS011;1311;47.966;7.958;2023-11-21T06:29:17;3.03;;;1.40;;
2602;SDS011;1311;47.966;7.958;2023-11-21T06:31:43;2.77;;;1.70;;
2602;SDS011;1311;47.966;7.958;2023-11-21T06:34:11;1.43;;;1.30;;
2602;SDS011;1311;47.966;7.958;2023-11-21T06:36:38;1.43;;;1.33;;
2602;SDS011;1311;47.966;7.958;2023-11-21T06:39:05;1.53;;;1.20;;
2602;SDS011;1311;47.966;7.958;2023-11-21T06:41:34;1.30;;;1.20;;
2602;SDS011;1311;47.966;7.958;2023-11-21T06:44:04;3.00;;;1.53;;
2602;SDS011;1311;47.966;7.958;2023-11-21T06:46:30;2.00;;;1.20;;
2602;SDS011;1311;47.966;7.958;2023-11-21T06:48:58;2.60;;;1.53;;
2602;SDS011;1311;47.966;7.958;2023-11-21T06:51:25;2.63;;;1.87;;
2602;SDS011;1311;47.966;7.958;2023-11-21T06:53:52;2.03;;;1.57;;
2602;SDS011;1311;47.966;7.958;2023-11-21T06:56:18;3.27;;;1.70;;
2602;SDS011;1311;47.966;7.958;2023-11-21T06:58:47;1.20;;;1.10;;
2602;SDS011;1311;47.966;7.958;2023-11-21T07:01:15;2.20;;;1.60;;
2602;SDS011;1311;47.966;7.958;2023-11-21T07:03:41;2.67;;;2.47;;
2602;SDS011;1311;47.966;7.958;2023-11-21T07:06:08;2.37;;;2.10;;
2602;SDS011;1311;47.966;7.958;2023-11-21T07:08:35;2.50;;;1.77;;
2602;SDS011;1311;47.966;7.958;2023-11-21T07:11:02;3.13;;;2.30;;
2602;SDS011;1311;47.966;7.958;2023-11-21T07:13:29;6.63;;;3.87;;
2602;SDS011;1311;47.966;7.958;2023-11-21T07:15:57;3.20;;;2.80;;
2602;SDS011;1311;47.966;7.958;2023-11-21T07:18:25;3.60;;;2.80;;
2602;SDS011;1311;47.966;7.958;2023-11-21T07:20:52;3.00;;;2.10;;
2602;SDS011;1311;47.966;7.958;2023-11-21T07:23:19;2.77;;;2.40;;
2602;SDS011;1311;47.966;7.958;2023-11-21T07:25:47;4.30;;;2.33;;
2602;SDS011;1311;47.966;7.958;2023-11-21T07:28:14;4.27;;;3.00;;
2602;SDS011;1311;47.966;7.958;2023-11-21T07:30:41;4.27;;;3.20;;
2602;SDS011;1311;47.966;7.958;2023-11-21T07:33:09;3.80;;;3.13;;
2602;SDS011;1311;47.966;7.958;2023-11-21T07:35:36;4.00;;;2.70;;
2602;SDS011;1311;47.966;7.958;2023-11-21T07:38:03;5.73;;;2.73;;
2602;SDS011;1311;47.966;7.958;2023-11-21T07:40:29;4.27;;;2.10;;
2602;SDS011;1311;47.966;7.958;2023-11-21T07:42:56;2.00;;;1.77;;
2602;SDS011;1311;47.966;7.958;2023-11-21T07:45:24;2.60;;;2.10;;
2602;SDS011;1311;47.966;7.958;2023-11-21T07:47:52;4.27;;;2.40;;
2602;SDS011;1311;47.966;7.958;2023-11-21T07:50:21;2.30;;;1.93;;
2602;SDS011;1311;47.966;7.958;2023-11-21T07:52:48;2.30;;;1.60;;
2602;SDS011;1311;47.966;7.958;2023-11-21T07:55:15;1.77;;;1.67;;
2602;SDS011;1311;47.966;7.958;2023-11-21T07:57:42;2.40;;;2.20;;
2602;SDS011;1311;47.966;7.958;2023-11-21T08:00:09;4.10;;;2.30;;
2602;SDS011;1311;47.966;7.958;2023-11-21T08:02:37;4.67;;;2.43;;
2602;SDS011;1311;47.966;7.958;2023-11-21T08:05:04;3.50;;;2.47;;
2602;SDS011;1311;47.966;7.958;2023-11-21T08:07:34;4.47;;;3.20;;
2602;SDS011;1311;47.966;7.958;2023-11-21T08:10:01;3.50;;;2.70;;
2602;SDS011;1311;47.966;7.958;2023-11-21T08:12:29;3.60;;;3.30;;
2602;SDS011;1311;47.966;7.958;2023-11-21T08:14:56;3.53;;;3.10;;
2602;SDS011;1311;47.966;7.958;2023-11-21T08:17:23;3.20;;;2.90;;
2602;SDS011;1311;47.966;7.958;2023-11-21T08:19:50;3.00;;;2.77;;
2602;SDS011;1311;47.966;7.958;2023-11-21T08:22:17;3.30;;;3.00;;
2602;SDS011;1311;47.966;7.958;2023-11-21T08:24:46;3.97;;;2.90;;
2602;SDS011;1311;47.966;7.958;2023-11-21T08:27:12;3.30;;;2.77;;
2602;SDS011;1311;47.966;7.958;2023-11-21T08:29:41;4.10;;;2.33;;
2602;SDS011;1311;47.966;7.958;2023-11-21T08:32:08;2.40;;;2.20;;
2602;SDS011;1311;47.966;7.958;2023-11-21T08:34:35;2.50;;;2.17;;
2602;SDS011;1311;47.966;7.958;2023-11-21T08:37:02;2.37;;;2.17;;
2602;SDS011;1311;47.966;7.958;2023-11-21T08:39:29;2.13;;;1.93;;
2602;SDS011;1311;47.966;7.958;2023-11-21T08:41:58;4.90;;;4.40;;
2602;SDS011;1311;47.966;7.958;2023-11-21T08:44:24;4.80;;;4.30;;
2602;SDS011;1311;47.966;7.958;2023-11-21T08:46:52;3.27;;;2.97;;
2602;SDS011;1311;47.966;7.958;2023-11-21T08:49:18;3.60;;;2.20;;
2602;SDS011;1311;47.966;7.958;2023-11-21T08:51:45;1.80;;;1.70;;
2602;SDS011;1311;47.966;7.958;2023-11-21T08:54:12;3.07;;;1.90;;
2602;SDS011;1311;47.966;7.958;2023-11-21T08:56:40;3.47;;;1.73;;
2602;SDS011;1311;47.966;7.958;2023-11-21T08:59:10;2.90;;;1.97;;
2602;SDS011;1311;47.966;7.958;2023-11-21T09:01:40;2.20;;;1.83;;
2602;SDS011;1311;47.966;7.958;2023-11-21T09:04:07;1.90;;;1.80;;
2602;SDS011;1311;47.966;7.958;2023-11-21T09:06:34;2.13;;;1.93;;
2602;SDS011;1311;47.966;7.958;2023-11-21T09:09:01;1.87;;;1.70;;
2602;SDS011;1311;47.966;7.958;2023-11-21T09:11:30;2.10;;;1.90;;
2602;SDS011;1311;47.966;7.958;2023-11-21T09:13:58;3.87;;;2.33;;
2602;SDS011;1311;47.966;7.958;2023-11-21T09:16:27;3.00;;;2.10;;
2602;SDS011;1311;47.966;7.958;2023-11-21T09:18:53;3.03;;;2.50;;
2602;SDS011;1311;47.966;7.958;2023-11-21T09:21:20;2.00;;;1.70;;
2602;SDS011;1311;47.966;7.958;2023-11-21T09:23:48;1.77;;;1.57;;
2602;SDS011;1311;47.966;7.958;2023-11-21T09:26:15;1.00;;;0.90;;
2602;SDS011;1311;47.966;7.958;2023-11-21T09:28:43;1.10;;;1.00;;
2602;SDS011;1311;47.966;7.958;2023-11-21T09:31:12;3.30;;;0.77;;
2602;SDS011;1311;47.966;7.958;2023-11-21T09:33:42;1.33;;;0.90;;
2602;SDS011;1311;47.966;7.958;2023-11-21T09:36:11;0.90;;;0.90;;
2602;SDS011;1311;47.966;7.958;2023-11-21T09:38:39;1.07;;;1.03;;
2602;SDS011;1311;47.966;7.958;2023-11-21T09:41:09;1.10;;;0.87;;
2602;SDS011;1311;47.966;7.958;2023-11-21T09:43:44;1.00;;;1.00;;
2602;SDS011;1311;47.966;7.958;2023-11-21T09:46:13;1.00;;;0.90;;
2602;SDS011;1311;47.966;7.958;2023-11-21T09:48:46;1.37;;;0.97;;
2602;SDS011;1311;47.966;7.958;2023-11-21T09:51:17;2.20;;;1.03;;
2602;SDS011;1311;47.966;7.958;2023-11-21T09:53:46;1.00;;;0.90;;
2602;SDS011;1311;47.966;7.958;2023-11-21T09:56:17;1.70;;;1.20;;
2602;SDS011;1311;47.966;7.958;2023-11-21T09:58:50;1.00;;;0.93;;
2602;SDS011;1311;47.966;7.958;2023-11-21T10:01:18;1.77;;;1.30;;
2602;SDS011;1311;47.966;7.958;2023-11-21T10:03:48;1.50;;;1.30;;
2602;SDS011;1311;47.966;7.958;2023-11-21T10:06:15;1.10;;;1.00;;
2602;SDS011;1311;47.966;7.958;2023-11-21T10:08:42;2.57;;;1.80;;
2602;SDS011;1311;47.966;7.958;2023-11-21T10:11:10;2.50;;;1.30;;
2602;SDS011;1311;47.966;7.958;2023-11-21T10:13:39;1.53;;;1.33;;
2602;SDS011;1311;47.966;7.958;2023-11-21T10:16:07;2.60;;;1.60;;
2602;SDS011;1311;47.966;7.958;2023-11-21T10:18:37;1.50;;;1.40;;
2602;SDS011;1311;47.966;7.958;2023-11-21T10:21:06;1.90;;;1.50;;
2602;SDS011;1311;47.966;7.958;2023-11-21T10:23:34;1.47;;;1.07;;
2602;SDS011;1311;47.966;7.958;2023-11-21T10:26:01;1.80;;;1.57;;
2602;SDS011;1311;47.966;7.958;2023-11-21T10:28:28;2.20;;;1.67;;
2602;SDS011;1311;47.966;7.958;2023-11-21T10:30:55;1.30;;;1.20;;
2602;SDS011;1311;47.966;7.958;2023-11-21T10:33:26;1.57;;;1.47;;
2602;SDS011;1311;47.966;7.958;2023-11-21T10:35:54;1.03;;;1.00;;
2602;SDS011;1311;47.966;7.958;2023-11-21T10:38:22;1.00;;;1.00;;
2602;SDS011;1311;47.966;7.958;2023-11-21T10:40:51;1.33;;;1.13;;
2602;SDS011;1311;47.966;7.958;2023-11-21T10:43:20;0.87;;;0.83;;
2602;SDS011;1311;47.966;7.958;2023-11-21T10:45:50;2.83;;;1.20;;
2602;SDS011;1311;47.966;7.958;2023-11-21T10:48:17;3.33;;;1.23;;
2602;SDS011;1311;47.966;7.958;2023-11-21T10:50:44;1.50;;;1.40;;
2602;SDS011;1311;47.966;7.958;2023-11-21T10:53:12;2.47;;;1.50;;
2602;SDS011;1311;47.966;7.958;2023-11-21T10:55:40;2.03;;;1.60;;
2602;SDS011;1311;47.966;7.958;2023-11-21T10:58:09;6.47;;;1.80;;
2602;SDS011;1311;47.966;7.958;2023-11-21T11:00:38;1.77;;;1.67;;
2602;SDS011;1311;47.966;7.958;2023-11-21T11:03:06;1.70;;;1.50;;
2602;SDS011;1311;47.966;7.958;2023-11-21T11:05:38;2.10;;;1.47;;
2602;SDS011;1311;47.966;7.958;2023-11-21T11:08:08;1.70;;;1.40;;
2602;SDS011;1311;47.966;7.958;2023-11-21T11:10:45;1.50;;;1.40;;
2602;SDS011;1311;47.966;7.958;2023-11-21T11:13:12;2.97;;;1.40;;
2602;SDS011;1311;47.966;7.958;2023-11-21T11:15:40;1.10;;;1.00;;
2602;SDS011;1311;47.966;7.958;2023-11-21T11:18:08;1.37;;;1.17;;
2602;SDS011;1311;47.966;7.958;2023-11-21T11:20:36;1.30;;;1.20;;
2602;SDS011;1311;47.966;7.958;2023-11-21T11:23:09;1.00;;;1.00;;
2602;SDS011;1311;47.966;7.958;2023-11-21T11:25:49;0.97;;;0.97;;
2602;SDS011;1311;47.966;7.958;2023-11-21T11:28:29;1.27;;;1.17;;
2602;SDS011;1311;47.966;7.958;2023-11-21T11:31:04;1.10;;;1.00;;
2602;SDS011;1311;47.966;7.958;2023-11-21T11:33:48;1.20;;;0.80;;
2602;SDS011;1311;47.966;7.958;2023-11-21T11:36:22;1.17;;;1.00;;
2602;SDS011;1311;47.966;7.958;2023-11-21T11:38:54;1.73;;;1.27;;
2602;SDS011;1311;47.966;7.958;2023-11-21T11:41:25;1.23;;;1.03;;
2602;SDS011;1311;47.966;7.958;2023-11-21T11:43:54;2.73;;;1.30;;
2602;SDS011;1311;47.966;7.958;2023-11-21T11:46:26;1.00;;;0.90;;
2602;SDS011;1311;47.966;7.958;2023-11-21T11:49:07;2.80;;;0.80;;
2602;SDS011;1311;47.966;7.958;2023-11-21T11:51:34;1.10;;;1.00;;
2602;SDS011;1311;47.966;7.958;2023-11-21T11:54:00;1.10;;;1.10;;
2602;SDS011;1311;47.966;7.958;2023-11-21T11:56:30;1.07;;;1.07;;
2602;SDS011;1311;47.966;7.958;2023-11-21T11:59:00;1.50;;;1.40;;
2602;SDS011;1311;47.966;7.958;2023-11-21T12:01:28;0.90;;;0.90;;
2602;SDS011;1311;47.966;7.958;2023-11-21T12:07:00;1.67;;;1.07;;
2602;SDS011;1311;47.966;7.958;2023-11-21T12:09:28;1.47;;;1.37;;
2602;SDS011;1311;47.966;7.958;2023-11-21T12:11:59;2.30;;;1.10;;
2602;SDS011;1311;47.966;7.958;2023-11-21T12:14:26;1.13;;;0.93;;
2602;SDS011;1311;47.966;7.958;2023-11-21T12:16:54;2.00;;;0.97;;
2602;SDS011;1311;47.966;7.958;2023-11-21T12:19:20;1.07;;;0.90;;
2602;SDS011;1311;47.966;7.958;2023-11-21T12:21:48;1.07;;;0.93;;
2602;SDS011;1311;47.966;7.958;2023-11-21T12:24:15;1.23;;;0.97;;
2602;SDS011;1311;47.966;7.958;2023-11-21T12:26:43;1.30;;;1.00;;
2602;SDS011;1311;47.966;7.958;2023-11-21T12:29:11;1.97;;;1.13;;
2602;SDS011;1311;47.966;7.958;2023-11-21T12:31:38;1.43;;;1.30;;
2602;SDS011;1311;47.966;7.958;2023-11-21T12:34:05;1.30;;;1.20;;
2602;SDS011;1311;47.966;7.958;2023-11-21T12:36:34;1.50;;;1.37;;
2602;SDS011;1311;47.966;7.958;2023-11-21T12:39:01;1.67;;;1.10;;
2602;SDS011;1311;47.966;7.958;2023-11-21T12:41:28;1.53;;;1.17;;
2602;SDS011;1311;47.966;7.958;2023-11-21T12:43:56;2.47;;;2.27;;
2602;SDS011;1311;47.966;7.958;2023-11-21T12:46:25;3.57;;;3.20;;
2602;SDS011;1311;47.966;7.958;2023-11-21T12:48:55;2.87;;;2.67;;
2602;SDS011;1311;47.966;7.958;2023-11-21T12:51:22;2.37;;;2.27;;
2602;SDS011;1311;47.966;7.958;2023-11-21T12:53:49;1.30;;;1.20;;
2602;SDS011;1311;47.966;7.958;2023-11-21T12:56:17;1.47;;;1.13;;
2602;SDS011;1311;47.966;7.958;2023-11-21T12:58:48;1.20;;;1.10;;
2602;SDS011;1311;47.966;7.958;2023-11-21T13:01:18;1.20;;;1.10;;
2602;SDS011;1311;47.966;7.958;2023-11-21T13:03:50;1.20;;;1.10;;
2602;SDS011;1311;47.966;7.958;2023-11-21T13:06:17;1.27;;;1.17;;
2602;SDS011;1311;47.966;7.958;2023-11-21T13:08:46;1.33;;;1.10;;
2602;SDS011;1311;47.966;7.958;2023-11-21T13:11:17;1.17;;;1.07;;
2602;SDS011;1311;47.966;7.958;2023-11-21T13:13:44;1.30;;;1.20;;
2602;SDS011;1311;47.966;7.958;2023-11-21T13:16:11;2.10;;;1.30;;
2602;SDS011;1311;47.966;7.958;2023-11-21T13:18:40;2.00;;;1.80;;
2602;SDS011;1311;47.966;7.958;2023-11-21T13:21:11;1.97;;;1.70;;
2602;SDS011;1311;47.966;7.958;2023-11-21T13:23:39;1.83;;;1.57;;
2602;SDS011;1311;47.966;7.958;2023-11-21T13:26:07;5.73;;;2.57;;
2602;SDS011;1311;47.966;7.958;2023-11-21T13:28:35;4.30;;;2.03;;
2602;SDS011;1311;47.966;7.958;2023-11-21T13:31:03;2.07;;;1.97;;
2602;SDS011;1311;47.966;7.958;2023-11-21T13:33:45;3.07;;;1.90;;
2602;SDS011;1311;47.966;7.958;2023-11-21T13:36:17;1.90;;;1.80;;
2602;SDS011;1311;47.966;7.958;2023-11-21T13:38:47;2.10;;;1.90;;
2602;SDS011;1311;47.966;7.958;2023-11-21T13:41:14;2.43;;;1.83;;
2602;SDS011;1311;47.966;7.958;2023-11-21T13:43:42;2.30;;;2.10;;
2602;SDS011;1311;47.966;7.958;2023-11-21T13:46:13;1.50;;;1.40;;
2602;SDS011;1311;47.966;7.958;2023-11-21T13:48:42;1.30;;;1.20;;
2602;SDS011;1311;47.966;7.958;2023-11-21T13:51:15;3.30;;;1.60;;
2602;SDS011;1311;47.966;7.958;2023-11-21T13:53:45;0.70;;;0.70;;
2602;SDS011;1311;47.966;7.958;2023-11-21T13:56:14;1.10;;;1.00;;
2602;SDS011;1311;47.966;7.958;2023-11-21T13:58:44;1.10;;;1.10;;
2602;SDS011;1311;47.966;7.958;2023-11-21T14:01:15;1.53;;;1.07;;
2602;SDS011;1311;47.966;7.958;2023-11-21T14:04:06;4.27;;;1.27;;
2602;SDS011;1311;47.966;7.958;2023-11-21T14:06:45;1.70;;;1.30;;
2602;SDS011;1311;47.966;7.958;2023-11-21T14:09:14;1.33;;;1.23;;
2602;SDS011;1311;47.966;7.958;2023-11-21T14:11:47;1.50;;;1.30;;
2602;SDS011;1311;47.966;7.958;2023-11-21T14:14:16;1.67;;;1.17;;
2602;SDS011;1311;47.966;7.958;2023-11-21T14:16:43;1.77;;;1.67;;
2602;SDS011;1311;47.966;7.958;2023-11-21T14:19:10;3.20;;;2.90;;
2602;SDS011;1311;47.966;7.958;2023-11-21T14:21:40;2.33;;;1.67;;
2602;SDS011;1311;47.966;7.958;2023-11-21T14:24:10;1.03;;;0.93;;
2602;SDS011;1311;47.966;7.958;2023-11-21T14:26:39;1.50;;;1.40;;
2602;SDS011;1311;47.966;7.958;2023-11-21T14:29:07;1.40;;;1.30;;
2602;SDS011;1311;47.966;7.958;2023-11-21T14:31:37;1.40;;;1.30;;
2602;SDS011;1311;47.966;7.958;2023-11-21T14:34:04;1.40;;;1.30;;
2602;SDS011;1311;47.966;7.958;2023-11-21T14:36:32;1.90;;;1.70;;
2602;SDS011;1311;47.966;7.958;2023-11-21T14:38:59;2.90;;;2.53;;
2602;SDS011;1311;47.966;7.958;2023-11-21T14:41:27;2.73;;;2.53;;
2602;SDS011;1311;47.966;7.958;2023-11-21T14:43:54;3.17;;;2.87;;
2602;SDS011;1311;47.966;7.958;2023-11-21T14:46:22;2.47;;;2.20;;
2602;SDS011;1311;47.966;7.958;2023-11-21T14:48:49;1.80;;;1.57;;
2602;SDS011;1311;47.966;7.958;2023-11-21T14:51:23;1.73;;;1.50;;
2602;SDS011;1311;47.966;7.958;2023-11-21T14:53:56;2.10;;;1.90;;
2602;SDS011;1311;47.966;7.958;2023-11-21T14:56:27;2.13;;;2.03;;
2602;SDS011;1311;47.966;7.958;2023-11-21T14:58:56;2.53;;;2.40;;
2602;SDS011;1311;47.966;7.958;2023-11-21T15:01:25;2.73;;;2.30;;
2602;SDS011;1311;47.966;7.958;2023-11-21T15:04:08;1.97;;;1.83;;
2602;SDS011;1311;47.966;7.958;2023-11-21T15:06:40;2.10;;;1.90;;
2602;SDS011;1311;47.966;7.958;2023-11-21T15:09:08;6.00;;;2.00;;
2602;SDS011;1311;47.966;7.958;2023-11-21T15:12:02;2.10;;;1.90;;
2602;SDS011;1311;47.966;7.958;2023-11-21T15:14:38;2.00;;;1.60;;
2602;SDS011;1311;47.966;7.958;2023-11-21T15:17:10;1.70;;;1.60;;
2602;SDS011;1311;47.966;7.958;2023-11-21T15:19:38;2.00;;;1.80;;
2602;SDS011;1311;47.966;7.958;2023-11-21T15:22:06;2.33;;;2.10;;
2602;SDS011;1311;47.966;7.958;2023-11-21T15:24:34;3.20;;;2.53;;
2602;SDS011;1311;47.966;7.958;2023-11-21T15:27:04;7.00;;;3.00;;